sensor_id;sensor_type;location;lat;lon;timestamp;pressure;altitude;pressure_sealevel;temperature;humidity
48563;BME280;34981;49.104;11.396;2023-04-24T00:01:26;99190.91;;;10.03;100.00
48563;BME280;34981;49.104;11.396;2023-04-24T00:03:56;99182.78;;;9.97;100.00
48563;BME280;34981;49.104;11.396;2023-04-24T00:06:26;99178.41;;;9.96;100.00
48563;BME280;34981;49.104;11.396;2023-04-24T00:09:00;99177.03;;;9.85;100.00
48563;BME280;34981;49.104;11.396;2023-04-24T00:11:27;99192.50;;;9.83;100.00
48563;BME280;34981;49.104;11.396;2023-04-24T00:13:55;99187.88;;;9.77;100.00
48563;BME280;34981;49.104;11.396;2023-04-24T00:16:22;99196.56;;;9.79;100.00
48563;BME280;34981;49.104;11.396;2023-04-24T00:18:49;99194.09;;;9.77;100.00
48563;BME280;34981;49.104;11.396;2023-04-24T00:21:19;99182.03;;;9.73;100.00
48563;BME280;34981;49.104;11.396;2023-04-24T00:23:47;99191.59;;;9.76;100.00
48563;BME280;34981;49.104;11.396;2023-04-24T00:26:14;99190.66;;;9.69;100.00
48563;BME280;34981;49.104;11.396;2023-04-24T00:28:41;99183.34;;;9.63;100.00
48563;BME280;34981;49.104;11.396;2023-04-24T00:31:08;99199.38;;;9.71;100.00
48563;BME280;34981;49.104;11.396;2023-04-24T00:33:35;99210.47;;;9.68;100.00
48563;BME280;34981;49.104;11.396;2023-04-24T00:36:03;99213.66;;;9.71;100.00
48563;BME280;34981;49.104;11.396;2023-04-24T00:38:30;99219.81;;;9.72;100.00
48563;BME280;34981;49.104;11.396;2023-04-24T00:40:57;99216.69;;;9.68;100.00
48563;BME280;34981;49.104;11.396;2023-04-24T00:43:24;99224.91;;;9.67;100.00
48563;BME280;34981;49.104;11.396;2023-04-24T00:45:51;99229.94;;;9.70;100.00
48563;BME280;34981;49.104;11.396;2023-04-24T00:48:18;99225.31;;;9.64;100.00
48563;BME280;34981;49.104;11.396;2023-04-24T00:50:47;99226.00;;;9.58;100.00
48563;BME280;34981;49.104;11.396;2023-04-24T00:53:14;99226.50;;;9.61;100.00
48563;BME280;34981;49.104;11.396;2023-04-24T00:55:41;99227.69;;;9.59;100.00
48563;BME280;34981;49.104;11.396;2023-04-24T00:58:08;99222.13;;;9.60;100.00
48563;BME280;34981;49.104;11.396;2023-04-24T01:00:36;99227.34;;;9.62;100.00
48563;BME280;34981;49.104;11.396;2023-04-24T01:03:04;99224.72;;;9.54;100.00
48563;BME280;34981;49.104;11.396;2023-04-24T01:05:32;99216.66;;;9.54;100.00
48563;BME280;34981;49.104;11.396;2023-04-24T01:08:00;99214.72;;;9.48;100.00
48563;BME280;34981;49.104;11.396;2023-04-24T01:10:29;99232.78;;;9.54;100.00
48563;BME280;34981;49.104;11.396;2023-04-24T01:12:58;99232.69;;;9.47;100.00
48563;BME280;34981;49.104;11.396;2023-04-24T01:15:26;99234.03;;;9.43;100.00
48563;BME280;34981;49.104;11.396;2023-04-24T01:17:53;99250.66;;;9.47;100.00
48563;BME280;34981;49.104;11.396;2023-04-24T01:20:20;99258.31;;;9.50;100.00
48563;BME280;34981;49.104;11.396;2023-04-24T01:22:48;99266.19;;;9.51;100.00
48563;BME280;34981;49.104;11.396;2023-04-24T01:25:15;99268.03;;;9.51;100.00
48563;BME280;34981;49.104;11.396;2023-04-24T01:27:42;99268.31;;;9.41;100.00
48563;BME280;34981;49.104;11.396;2023-04-24T01:30:11;99268.84;;;9.36;100.00
48563;BME280;34981;49.104;11.396;2023-04-24T01:32:38;99270.41;;;9.31;100.00
48563;BME280;34981;49.104;11.396;2023-04-24T01:35:06;99275.59;;;9.32;100.00
48563;BME280;34981;49.104;11.396;2023-04-24T01:37:33;99273.34;;;9.21;100.00
48563;BME280;34981;49.104;11.396;2023-04-24T01:40:00;99281.03;;;9.24;100.00
48563;BME280;34981;49.104;11.396;2023-04-24T01:42:27;99285.22;;;9.27;100.00
48563;BME280;34981;49.104;11.396;2023-04-24T01:44:55;99281.97;;;9.31;100.00
48563;BME280;34981;49.104;11.396;2023-04-24T01:47:23;99292.78;;;9.23;100.00
48563;BME280;34981;49.104;11.396;2023-04-24T01:49:51;99294.47;;;9.24;100.00
48563;BME280;34981;49.104;11.396;2023-04-24T01:52:18;99315.03;;;9.32;100.00
48563;BME280;34981;49.104;11.396;2023-04-24T01:54:47;99327.06;;;9.36;100.00
48563;BME280;34981;49.104;11.396;2023-04-24T01:57:14;99326.06;;;9.37;100.00
48563;BME280;34981;49.104;11.396;2023-04-24T01:59:42;99335.63;;;9.40;100.00
48563;BME280;34981;49.104;11.396;2023-04-24T02:02:09;99335.97;;;9.36;100.00
48563;BME280;34981;49.104;11.396;2023-04-24T02:04:37;99335.50;;;9.33;100.00
48563;BME280;34981;49.104;11.396;2023-04-24T02:07:04;99337.53;;;9.31;100.00
48563;BME280;34981;49.104;11.396;2023-04-24T02:09:32;99351.63;;;9.33;100.00
48563;BME280;34981;49.104;11.396;2023-04-24T02:11:59;99350.78;;;9.32;100.00
48563;BME280;34981;49.104;11.396;2023-04-24T02:14:27;99347.44;;;9.30;100.00
48563;BME280;34981;49.104;11.396;2023-04-24T02:16:54;99343.44;;;9.26;100.00
48563;BME280;34981;49.104;11.396;2023-04-24T02:19:22;99349.94;;;9.32;100.00
48563;BME280;34981;49.104;11.396;2023-04-24T02:21:50;99356.44;;;9.37;100.00
48563;BME280;34981;49.104;11.396;2023-04-24T02:24:17;99357.09;;;9.40;100.00
48563;BME280;34981;49.104;11.396;2023-04-24T02:26:44;99360.47;;;9.42;100.00
48563;BME280;34981;49.104;11.396;2023-04-24T02:29:11;99360.63;;;9.40;100.00
48563;BME280;34981;49.104;11.396;2023-04-24T02:31:40;99349.78;;;9.33;100.00
48563;BME280;34981;49.104;11.396;2023-04-24T02:34:08;99354.81;;;9.28;100.00
48563;BME280;34981;49.104;11.396;2023-04-24T02:36:35;99358.06;;;9.24;100.00
48563;BME280;34981;49.104;11.396;2023-04-24T02:39:02;99359.22;;;9.21;100.00
48563;BME280;34981;49.104;11.396;2023-04-24T02:41:31;99359.34;;;9.28;100.00
48563;BME280;34981;49.104;11.396;2023-04-24T02:43:59;99364.59;;;9.21;100.00
48563;BME280;34981;49.104;11.396;2023-04-24T02:46:26;99372.19;;;9.18;100.00
48563;BME280;34981;49.104;11.396;2023-04-24T02:48:54;99377.38;;;9.19;100.00
48563;BME280;34981;49.104;11.396;2023-04-24T02:51:21;99386.63;;;9.17;100.00
48563;BME280;34981;49.104;11.396;2023-04-24T02:53:48;99380.41;;;9.16;100.00
48563;BME280;34981;49.104;11.396;2023-04-24T02:56:15;99385.47;;;9.11;100.00
48563;BME280;34981;49.104;11.396;2023-04-24T02:58:42;99401.88;;;9.16;100.00
48563;BME280;34981;49.104;11.396;2023-04-24T03:01:09;99408.25;;;9.15;100.00
48563;BME280;34981;49.104;11.396;2023-04-24T03:03:37;99399.53;;;9.13;100.00
48563;BME280;34981;49.104;11.396;2023-04-24T03:06:05;99397.91;;;9.12;100.00
48563;BME280;34981;49.104;11.396;2023-04-24T03:08:35;99398.22;;;9.09;100.00
48563;BME280;34981;49.104;11.396;2023-04-24T03:11:04;99412.66;;;9.08;100.00
48563;BME280;34981;49.104;11.396;2023-04-24T03:13:31;99422.56;;;9.08;100.00
48563;BME280;34981;49.104;11.396;2023-04-24T03:15:58;99431.13;;;9.03;100.00
48563;BME280;34981;49.104;11.396;2023-04-24T03:18:27;99444.72;;;9.02;100.00
48563;BME280;34981;49.104;11.396;2023-04-24T03:20:54;99455.97;;;9.05;100.00
48563;BME280;34981;49.104;11.396;2023-04-24T03:23:21;99477.06;;;9.08;100.00
48563;BME280;34981;49.104;11.396;2023-04-24T03:25:50;99473.03;;;9.12;100.00
48563;BME280;34981;49.104;11.396;2023-04-24T03:28:19;99477.06;;;9.08;100.00
48563;BME280;34981;49.104;11.396;2023-04-24T03:30:56;99473.38;;;9.09;100.00
48563;BME280;34981;49.104;11.396;2023-04-24T03:33:25;99485.28;;;9.07;100.00
48563;BME280;34981;49.104;11.396;2023-04-24T03:35:58;99489.66;;;9.08;100.00
48563;BME280;34981;49.104;11.396;2023-04-24T03:38:27;99511.78;;;9.10;100.00
48563;BME280;34981;49.104;11.396;2023-04-24T03:41:14;99490.66;;;9.07;100.00
48563;BME280;34981;49.104;11.396;2023-04-24T03:43:48;99515.00;;;9.05;100.00
48563;BME280;34981;49.104;11.396;2023-04-24T03:46:15;99530.75;;;9.08;100.00
48563;BME280;34981;49.104;11.396;2023-04-24T03:48:49;99516.16;;;9.11;100.00
48563;BME280;34981;49.104;11.396;2023-04-24T03:51:18;99519.69;;;9.11;100.00
48563;BME280;34981;49.104;11.396;2023-04-24T03:53:48;99509.63;;;9.05;100.00
48563;BME280;34981;49.104;11.396;2023-04-24T03:56:18;99505.78;;;8.99;100.00
48563;BME280;34981;49.104;11.396;2023-04-24T03:58:46;99522.72;;;9.00;100.00
48563;BME280;34981;49.104;11.396;2023-04-24T04:01:13;99521.72;;;9.01;100.00
48563;BME280;34981;49.104;11.396;2023-04-24T04:04:09;99482.84;;;8.97;100.00
48563;BME280;34981;49.104;11.396;2023-04-24T04:06:37;99541.19;;;8.95;100.00
48563;BME280;34981;49.104;11.396;2023-04-24T04:09:04;99539.50;;;8.94;100.00
48563;BME280;34981;49.104;11.396;2023-04-24T04:11:32;99555.13;;;8.90;100.00
48563;BME280;34981;49.104;11.396;2023-04-24T04:13:59;99557.97;;;8.89;100.00
48563;BME280;34981;49.104;11.396;2023-04-24T04:16:26;99563.34;;;8.89;100.00
48563;BME280;34981;49.104;11.396;2023-04-24T04:18:59;99556.31;;;8.88;100.00
48563;BME280;34981;49.104;11.396;2023-04-24T04:21:27;99563.66;;;8.86;100.00
48563;BME280;34981;49.104;11.396;2023-04-24T04:24:03;99555.97;;;8.83;100.00
48563;BME280;34981;49.104;11.396;2023-04-24T04:26:36;99558.00;;;8.81;100.00
48563;BME280;34981;49.104;11.396;2023-04-24T04:29:07;99573.56;;;8.85;100.00
48563;BME280;34981;49.104;11.396;2023-04-24T04:31:38;99578.44;;;8.90;100.00
48563;BME280;34981;49.104;11.396;2023-04-24T04:34:10;99575.91;;;8.88;100.00
48563;BME280;34981;49.104;11.396;2023-04-24T04:36:40;99579.78;;;8.86;100.00
48563;BME280;34981;49.104;11.396;2023-04-24T04:39:27;99549.63;;;8.84;100.00
48563;BME280;34981;49.104;11.396;2023-04-24T04:42:06;99569.03;;;8.86;100.00
48563;BME280;34981;49.104;11.396;2023-04-24T04:44:38;99568.72;;;8.81;100.00
48563;BME280;34981;49.104;11.396;2023-04-24T04:47:08;99595.56;;;8.81;100.00
48563;BME280;34981;49.104;11.396;2023-04-24T04:49:38;99592.03;;;8.80;100.00
48563;BME280;34981;49.104;11.396;2023-04-24T04:52:14;99594.19;;;8.85;100.00
48563;BME280;34981;49.104;11.396;2023-04-24T04:54:41;99593.72;;;8.81;100.00
48563;BME280;34981;49.104;11.396;2023-04-24T04:57:08;99608.28;;;8.79;100.00
48563;BME280;34981;49.104;11.396;2023-04-24T04:59:36;99605.97;;;8.76;100.00
48563;BME280;34981;49.104;11.396;2023-04-24T05:02:08;99601.44;;;8.76;100.00
48563;BME280;34981;49.104;11.396;2023-04-24T05:04:36;99611.81;;;8.79;100.00
48563;BME280;34981;49.104;11.396;2023-04-24T05:07:04;99609.97;;;8.80;100.00
48563;BME280;34981;49.104;11.396;2023-04-24T05:09:33;99614.16;;;8.74;100.00
48563;BME280;34981;49.104;11.396;2023-04-24T05:12:03;99622.06;;;8.76;100.00
48563;BME280;34981;49.104;11.396;2023-04-24T05:14:34;99614.00;;;8.76;100.00
48563;BME280;34981;49.104;11.396;2023-04-24T05:17:02;99632.09;;;8.82;100.00
48563;BME280;34981;49.104;11.396;2023-04-24T05:19:30;99619.38;;;8.84;100.00
48563;BME280;34981;49.104;11.396;2023-04-24T05:22:00;99621.84;;;8.85;100.00
48563;BME280;34981;49.104;11.396;2023-04-24T05:24:30;99615.66;;;8.85;100.00
48563;BME280;34981;49.104;11.396;2023-04-24T05:27:20;99608.78;;;8.90;100.00
48563;BME280;34981;49.104;11.396;2023-04-24T05:29:48;99643.47;;;8.92;100.00
48563;BME280;34981;49.104;11.396;2023-04-24T05:32:15;99641.84;;;8.91;100.00
48563;BME280;34981;49.104;11.396;2023-04-24T05:34:42;99644.69;;;8.89;100.00
48563;BME280;34981;49.104;11.396;2023-04-24T05:37:09;99649.22;;;8.89;100.00
48563;BME280;34981;49.104;11.396;2023-04-24T05:39:37;99652.72;;;8.97;100.00
48563;BME280;34981;49.104;11.396;2023-04-24T05:42:04;99652.22;;;9.02;100.00
48563;BME280;34981;49.104;11.396;2023-04-24T05:44:32;99654.06;;;9.02;100.00
48563;BME280;34981;49.104;11.396;2023-04-24T05:46:59;99652.38;;;9.01;100.00
48563;BME280;34981;49.104;11.396;2023-04-24T05:49:26;99650.53;;;9.01;100.00
48563;BME280;34981;49.104;11.396;2023-04-24T05:51:54;99654.72;;;9.04;100.00
48563;BME280;34981;49.104;11.396;2023-04-24T05:54:21;99662.25;;;9.08;100.00
48563;BME280;34981;49.104;11.396;2023-04-24T05:56:49;99669.47;;;9.08;100.00
48563;BME280;34981;49.104;11.396;2023-04-24T05:59:30;99646.84;;;9.10;100.00
48563;BME280;34981;49.104;11.396;2023-04-24T06:01:57;99662.25;;;9.08;100.00
48563;BME280;34981;49.104;11.396;2023-04-24T06:04:25;99659.25;;;9.11;100.00
48563;BME280;34981;49.104;11.396;2023-04-24T06:06:52;99664.25;;;9.14;100.00
48563;BME280;34981;49.104;11.396;2023-04-24T06:09:22;99661.41;;;9.16;100.00
48563;BME280;34981;49.104;11.396;2023-04-24T06:11:50;99669.31;;;9.17;100.00
48563;BME280;34981;49.104;11.396;2023-04-24T06:14:22;99642.94;;;9.21;100.00
48563;BME280;34981;49.104;11.396;2023-04-24T06:17:09;99619.97;;;9.26;100.00
48563;BME280;34981;49.104;11.396;2023-04-24T06:19:39;99645.13;;;9.33;100.00
48563;BME280;34981;49.104;11.396;2023-04-24T06:22:07;99646.75;;;9.43;100.00
48563;BME280;34981;49.104;11.396;2023-04-24T06:24:37;99654.47;;;9.54;100.00
48563;BME280;34981;49.104;11.396;2023-04-24T06:27:04;99661.50;;;9.63;100.00
48563;BME280;34981;49.104;11.396;2023-04-24T06:29:31;99666.16;;;9.69;100.00
48563;BME280;34981;49.104;11.396;2023-04-24T06:31:58;99670.50;;;9.78;100.00
48563;BME280;34981;49.104;11.396;2023-04-24T06:34:26;99664.09;;;9.79;100.00
48563;BME280;34981;49.104;11.396;2023-04-24T06:36:53;99661.91;;;9.83;100.00
48563;BME280;34981;49.104;11.396;2023-04-24T06:39:20;99650.63;;;9.87;100.00
48563;BME280;34981;49.104;11.396;2023-04-24T06:41:48;99643.59;;;9.86;100.00
48563;BME280;34981;49.104;11.396;2023-04-24T06:44:19;99637.38;;;9.86;100.00
48563;BME280;34981;49.104;11.396;2023-04-24T06:46:46;99645.09;;;9.89;100.00
48563;BME280;34981;49.104;11.396;2023-04-24T06:49:13;99636.69;;;9.92;100.00
48563;BME280;34981;49.104;11.396;2023-04-24T06:51:42;99634.28;;;9.97;100.00
48563;BME280;34981;49.104;11.396;2023-04-24T06:54:10;99653.53;;;10.08;100.00
48563;BME280;34981;49.104;11.396;2023-04-24T06:56:37;99644.81;;;10.14;100.00
48563;BME280;34981;49.104;11.396;2023-04-24T06:59:04;99641.59;;;10.19;100.00
48563;BME280;34981;49.104;11.396;2023-04-24T07:01:31;99632.34;;;10.22;100.00
48563;BME280;34981;49.104;11.396;2023-04-24T07:03:58;99639.03;;;10.26;100.00
48563;BME280;34981;49.104;11.396;2023-04-24T07:06:26;99636.47;;;10.32;100.00
48563;BME280;34981;49.104;11.396;2023-04-24T07:08:54;99639.66;;;10.36;100.00
48563;BME280;34981;49.104;11.396;2023-04-24T07:11:22;99631.88;;;10.41;100.00
48563;BME280;34981;49.104;11.396;2023-04-24T07:13:49;99615.41;;;10.44;100.00
48563;BME280;34981;49.104;11.396;2023-04-24T07:16:16;99619.09;;;10.43;100.00
48563;BME280;34981;49.104;11.396;2023-04-24T07:18:43;99606.28;;;10.45;100.00
48563;BME280;34981;49.104;11.396;2023-04-24T07:21:10;99603.53;;;10.53;100.00
48563;BME280;34981;49.104;11.396;2023-04-24T07:23:38;99606.16;;;10.61;100.00
48563;BME280;34981;49.104;11.396;2023-04-24T07:26:05;99597.91;;;10.63;100.00
48563;BME280;34981;49.104;11.396;2023-04-24T07:28:32;99584.06;;;10.51;100.00
48563;BME280;34981;49.104;11.396;2023-04-24T07:30:59;99562.78;;;10.41;100.00
48563;BME280;34981;49.104;11.396;2023-04-24T07:33:27;99556.91;;;10.38;100.00
48563;BME280;34981;49.104;11.396;2023-04-24T07:35:54;99549.00;;;10.44;100.00
48563;BME280;34981;49.104;11.396;2023-04-24T07:38:21;99545.09;;;10.47;100.00
48563;BME280;34981;49.104;11.396;2023-04-24T07:40:48;99538.13;;;10.52;100.00
48563;BME280;34981;49.104;11.396;2023-04-24T07:43:16;99541.59;;;10.61;100.00
48563;BME280;34981;49.104;11.396;2023-04-24T07:45:43;99524.44;;;10.62;100.00
48563;BME280;34981;49.104;11.396;2023-04-24T07:48:11;99516.94;;;10.72;100.00
48563;BME280;34981;49.104;11.396;2023-04-24T07:50:38;99518.53;;;10.81;100.00
48563;BME280;34981;49.104;11.396;2023-04-24T07:53:05;99517.97;;;10.86;100.00
48563;BME280;34981;49.104;11.396;2023-04-24T07:55:32;99511.59;;;10.87;100.00
48563;BME280;34981;49.104;11.396;2023-04-24T07:57:59;99511.94;;;10.84;100.00
48563;BME280;34981;49.104;11.396;2023-04-24T08:00:26;99482.50;;;10.68;100.00
48563;BME280;34981;49.104;11.396;2023-04-24T08:02:53;99470.31;;;10.42;100.00
48563;BME280;34981;49.104;11.396;2023-04-24T08:05:20;99441.72;;;10.27;100.00
48563;BME280;34981;49.104;11.396;2023-04-24T08:07:48;99452.47;;;10.27;100.00
48563;BME280;34981;49.104;11.396;2023-04-24T08:10:15;99451.47;;;10.28;100.00
48563;BME280;34981;49.104;11.396;2023-04-24T08:12:42;99443.75;;;10.25;100.00
48563;BME280;34981;49.104;11.396;2023-04-24T08:15:10;99445.72;;;10.31;100.00
48563;BME280;34981;49.104;11.396;2023-04-24T08:17:37;99433.94;;;10.32;100.00
48563;BME280;34981;49.104;11.396;2023-04-24T08:20:04;99435.25;;;10.36;100.00
48563;BME280;34981;49.104;11.396;2023-04-24T08:22:32;99439.91;;;10.42;100.00
48563;BME280;34981;49.104;11.396;2023-04-24T08:24:59;99428.22;;;10.35;100.00
48563;BME280;34981;49.104;11.396;2023-04-24T08:27:27;99435.81;;;10.46;100.00
48563;BME280;34981;49.104;11.396;2023-04-24T08:29:54;99430.44;;;10.46;100.00
48563;BME280;34981;49.104;11.396;2023-04-24T08:32:21;99413.84;;;10.42;100.00
48563;BME280;34981;49.104;11.396;2023-04-24T08:34:48;99418.13;;;10.37;100.00
48563;BME280;34981;49.104;11.396;2023-04-24T08:37:16;99412.72;;;10.37;100.00
48563;BME280;34981;49.104;11.396;2023-04-24T08:39:43;99405.03;;;10.34;100.00
48563;BME280;34981;49.104;11.396;2023-04-24T08:42:10;99403.44;;;10.39;100.00
48563;BME280;34981;49.104;11.396;2023-04-24T08:44:38;99399.16;;;10.45;100.00
48563;BME280;34981;49.104;11.396;2023-04-24T08:47:05;99409.84;;;10.53;100.00
48563;BME280;34981;49.104;11.396;2023-04-24T08:49:35;99403.00;;;10.65;100.00
48563;BME280;34981;49.104;11.396;2023-04-24T08:52:03;99417.91;;;10.82;100.00
48563;BME280;34981;49.104;11.396;2023-04-24T08:54:30;99415.22;;;10.82;100.00
48563;BME280;34981;49.104;11.396;2023-04-24T08:56:58;99425.53;;;10.93;100.00
48563;BME280;34981;49.104;11.396;2023-04-24T08:59:28;99403.34;;;10.91;100.00
48563;BME280;34981;49.104;11.396;2023-04-24T09:01:55;99416.16;;;10.89;100.00
48563;BME280;34981;49.104;11.396;2023-04-24T09:04:23;99391.59;;;10.78;100.00
48563;BME280;34981;49.104;11.396;2023-04-24T09:06:55;99384.25;;;10.86;100.00
48563;BME280;34981;49.104;11.396;2023-04-24T09:09:23;99390.53;;;10.93;100.00
48563;BME280;34981;49.104;11.396;2023-04-24T09:11:51;99381.97;;;11.05;100.00
48563;BME280;34981;49.104;11.396;2023-04-24T09:14:20;99356.22;;;10.96;100.00
48563;BME280;34981;49.104;11.396;2023-04-24T09:16:48;99340.59;;;10.91;100.00
48563;BME280;34981;49.104;11.396;2023-04-24T09:19:15;99312.38;;;11.02;100.00
48563;BME280;34981;49.104;11.396;2023-04-24T09:21:42;99285.94;;;10.90;100.00
48563;BME280;34981;49.104;11.396;2023-04-24T09:24:16;99270.44;;;10.92;100.00
48563;BME280;34981;49.104;11.396;2023-04-24T09:26:49;99261.34;;;11.15;100.00
48563;BME280;34981;49.104;11.396;2023-04-24T09:29:24;99260.19;;;11.45;100.00
48563;BME280;34981;49.104;11.396;2023-04-24T09:31:51;99286.25;;;11.66;100.00
48563;BME280;34981;49.104;11.396;2023-04-24T09:34:25;99279.13;;;11.80;100.00
48563;BME280;34981;49.104;11.396;2023-04-24T09:36:52;99264.34;;;11.97;100.00
48563;BME280;34981;49.104;11.396;2023-04-24T09:39:20;99246.63;;;11.88;100.00
48563;BME280;34981;49.104;11.396;2023-04-24T09:44:15;99230.88;;;12.19;100.00
48563;BME280;34981;49.104;11.396;2023-04-24T09:46:43;99234.13;;;12.56;100.00
48563;BME280;34981;49.104;11.396;2023-04-24T09:49:11;99232.97;;;12.78;100.00
48563;BME280;34981;49.104;11.396;2023-04-24T09:51:39;99190.78;;;12.77;100.00
48563;BME280;34981;49.104;11.396;2023-04-24T09:54:21;99185.44;;;13.03;100.00
48563;BME280;34981;49.104;11.396;2023-04-24T09:56:50;99117.72;;;12.85;100.00
48563;BME280;34981;49.104;11.396;2023-04-24T09:59:18;99174.03;;;13.41;100.00
48563;BME280;34981;49.104;11.396;2023-04-24T10:01:46;99136.59;;;13.64;100.00
48563;BME280;34981;49.104;11.396;2023-04-24T10:04:17;99048.06;;;13.40;100.00
48563;BME280;34981;49.104;11.396;2023-04-24T10:06:45;98941.56;;;12.96;100.00
48563;BME280;34981;49.104;11.396;2023-04-24T10:09:12;98900.66;;;12.86;100.00
48563;BME280;34981;49.104;11.396;2023-04-24T10:11:44;98856.03;;;12.83;100.00
48563;BME280;34981;49.104;11.396;2023-04-24T10:14:15;98795.66;;;12.65;100.00
48563;BME280;34981;49.104;11.396;2023-04-24T10:16:43;98789.75;;;12.87;100.00
48563;BME280;34981;49.104;11.396;2023-04-24T10:19:10;98788.69;;;12.95;100.00
48563;BME280;34981;49.104;11.396;2023-04-24T10:21:41;98682.06;;;12.73;100.00
48563;BME280;34981;49.104;11.396;2023-04-24T10:24:09;98665.03;;;12.72;100.00
48563;BME280;34981;49.104;11.396;2023-04-24T10:26:37;98617.00;;;12.49;100.00
48563;BME280;34981;49.104;11.396;2023-04-24T10:29:05;98536.84;;;12.32;100.00
48563;BME280;34981;49.104;11.396;2023-04-24T10:31:36;98444.28;;;12.06;100.00
48563;BME280;34981;49.104;11.396;2023-04-24T10:34:05;98412.44;;;11.97;100.00
48563;BME280;34981;49.104;11.396;2023-04-24T10:36:32;98441.81;;;12.05;100.00
48563;BME280;34981;49.104;11.396;2023-04-24T10:39:03;98402.84;;;12.01;100.00
48563;BME280;34981;49.104;11.396;2023-04-24T10:41:33;98364.44;;;11.81;100.00
48563;BME280;34981;49.104;11.396;2023-04-24T10:46:33;98330.22;;;11.81;100.00
48563;BME280;34981;49.104;11.396;2023-04-24T10:49:06;98354.94;;;11.71;100.00
48563;BME280;34981;49.104;11.396;2023-04-24T10:51:49;98356.22;;;11.62;100.00
48563;BME280;34981;49.104;11.396;2023-04-24T10:56:50;98400.25;;;11.88;100.00
48563;BME280;34981;49.104;11.396;2023-04-24T10:59:24;98408.28;;;11.94;100.00
48563;BME280;34981;49.104;11.396;2023-04-24T11:01:54;98405.22;;;12.16;100.00
48563;BME280;34981;49.104;11.396;2023-04-24T11:04:29;98385.34;;;12.10;100.00
48563;BME280;34981;49.104;11.396;2023-04-24T11:06:56;98323.63;;;12.02;100.00
48563;BME280;34981;49.104;11.396;2023-04-24T11:09:26;98265.03;;;11.91;100.00
48563;BME280;34981;49.104;11.396;2023-04-24T11:12:02;98205.03;;;11.77;100.00
48563;BME280;34981;49.104;11.396;2023-04-24T11:14:29;98142.66;;;11.74;100.00
48563;BME280;34981;49.104;11.396;2023-04-24T11:16:56;98086.25;;;11.79;100.00
48563;BME280;34981;49.104;11.396;2023-04-24T11:19:25;98004.03;;;11.76;100.00
48563;BME280;34981;49.104;11.396;2023-04-24T11:26:56;97890.97;;;12.34;100.00
48563;BME280;34981;49.104;11.396;2023-04-24T11:29:37;97905.03;;;12.71;100.00
48563;BME280;34981;49.104;11.396;2023-04-24T11:34:51;97712.66;;;12.71;100.00
48563;BME280;34981;49.104;11.396;2023-04-24T11:37:18;97683.38;;;12.79;100.00
48563;BME280;34981;49.104;11.396;2023-04-24T11:39:46;97610.47;;;13.08;100.00
48563;BME280;34981;49.104;11.396;2023-04-24T11:42:16;97464.78;;;12.79;100.00
48563;BME280;34981;49.104;11.396;2023-04-24T11:44:43;97312.31;;;12.77;100.00
48563;BME280;34981;49.104;11.396;2023-04-24T11:47:10;97117.31;;;12.60;100.00
48563;BME280;34981;49.104;11.396;2023-04-24T11:49:37;96947.28;;;12.49;100.00
48563;BME280;34981;49.104;11.396;2023-04-24T11:52:05;96853.47;;;12.57;100.00
48563;BME280;34981;49.104;11.396;2023-04-24T11:54:32;96789.88;;;12.66;100.00
48563;BME280;34981;49.104;11.396;2023-04-24T11:56:59;96736.91;;;12.49;100.00
48563;BME280;34981;49.104;11.396;2023-04-24T11:59:34;96701.91;;;12.55;100.00
48563;BME280;34981;49.104;11.396;2023-04-24T12:02:01;96720.28;;;12.68;100.00
48563;BME280;34981;49.104;11.396;2023-04-24T12:04:37;96678.75;;;12.64;100.00
48563;BME280;34981;49.104;11.396;2023-04-24T12:07:05;96616.72;;;12.79;100.00
48563;BME280;34981;49.104;11.396;2023-04-24T12:09:49;96511.50;;;12.48;100.00
48563;BME280;34981;49.104;11.396;2023-04-24T12:12:18;96383.13;;;12.02;100.00
48563;BME280;34981;49.104;11.396;2023-04-24T12:17:28;96438.13;;;12.11;100.00
48563;BME280;34981;49.104;11.396;2023-04-24T12:19:59;96445.38;;;12.11;100.00
48563;BME280;34981;49.104;11.396;2023-04-24T12:22:28;96461.22;;;11.92;100.00
48563;BME280;34981;49.104;11.396;2023-04-24T12:24:55;96514.53;;;11.85;100.00
48563;BME280;34981;49.104;11.396;2023-04-24T12:27:23;96517.69;;;11.66;100.00
48563;BME280;34981;49.104;11.396;2023-04-24T12:29:55;96507.56;;;11.42;100.00
48563;BME280;34981;49.104;11.396;2023-04-24T12:32:22;96514.72;;;11.21;100.00
48563;BME280;34981;49.104;11.396;2023-04-24T12:34:52;96526.56;;;11.20;100.00
48563;BME280;34981;49.104;11.396;2023-04-24T12:37:19;96517.88;;;11.08;100.00
48563;BME280;34981;49.104;11.396;2023-04-24T12:40:03;96525.63;;;11.04;100.00
48563;BME280;34981;49.104;11.396;2023-04-24T12:42:33;96517.75;;;10.92;100.00
48563;BME280;34981;49.104;11.396;2023-04-24T12:45:01;96567.94;;;11.09;100.00
48563;BME280;34981;49.104;11.396;2023-04-24T12:47:28;96605.66;;;11.19;100.00
48563;BME280;34981;49.104;11.396;2023-04-24T12:49:55;96664.97;;;11.29;100.00
48563;BME280;34981;49.104;11.396;2023-04-24T12:52:23;96686.38;;;11.46;100.00
48563;BME280;34981;49.104;11.396;2023-04-24T12:54:54;96680.00;;;11.57;100.00
48563;BME280;34981;49.104;11.396;2023-04-24T12:57:22;96697.81;;;11.63;100.00
48563;BME280;34981;49.104;11.396;2023-04-24T12:59:49;96714.38;;;11.77;100.00
48563;BME280;34981;49.104;11.396;2023-04-24T13:02:17;96704.84;;;11.69;100.00
48563;BME280;34981;49.104;11.396;2023-04-24T13:04:45;96693.28;;;11.68;100.00
48563;BME280;34981;49.104;11.396;2023-04-24T13:07:13;96684.09;;;11.64;100.00
48563;BME280;34981;49.104;11.396;2023-04-24T13:09:41;96669.91;;;11.42;100.00
48563;BME280;34981;49.104;11.396;2023-04-24T13:12:09;96661.00;;;11.37;100.00